sensor_id;sensor_type;location;lat;lon;timestamp;pressure;altitude;pressure_sealevel;temperature;humidity
16030;BME280;34770;49.272;11.070;2023-08-08T00:00:46;97810.84;;;10.49;88.39
16030;BME280;34770;49.272;11.070;2023-08-08T00:03:11;97811.84;;;10.48;88.55
16030;BME280;34770;49.272;11.070;2023-08-08T00:05:36;97815.16;;;10.61;88.73
16030;BME280;34770;49.272;11.070;2023-08-08T00:08:02;97802.75;;;10.59;88.49
16030;BME280;34770;49.272;11.070;2023-08-08T00:10:27;97809.22;;;10.67;88.00
16030;BME280;34770;49.272;11.070;2023-08-08T00:12:53;97817.66;;;10.74;87.94
16030;BME280;34770;49.272;11.070;2023-08-08T00:15:18;97827.69;;;10.83;87.51
16030;BME280;34770;49.272;11.070;2023-08-08T00:17:43;97822.13;;;10.84;87.08
16030;BME280;34770;49.272;11.070;2023-08-08T00:20:09;97827.84;;;10.91;87.06
16030;BME280;34770;49.272;11.070;2023-08-08T00:22:35;97807.31;;;10.88;87.33
16030;BME280;34770;49.272;11.070;2023-08-08T00:25:01;97812.72;;;10.88;87.75
16030;BME280;34770;49.272;11.070;2023-08-08T00:27:26;97793.00;;;10.77;88.09
16030;BME280;34770;49.272;11.070;2023-08-08T00:29:51;97795.59;;;10.88;88.25
16030;BME280;34770;49.272;11.070;2023-08-08T00:32:18;97791.03;;;10.88;87.95
16030;BME280;34770;49.272;11.070;2023-08-08T00:34:43;97789.03;;;10.90;88.28
16030;BME280;34770;49.272;11.070;2023-08-08T00:37:09;97784.59;;;10.89;88.42
16030;BME280;34770;49.272;11.070;2023-08-08T00:39:34;97809.19;;;10.97;88.07
16030;BME280;34770;49.272;11.070;2023-08-08T00:42:00;97800.31;;;10.95;88.00
16030;BME280;34770;49.272;11.070;2023-08-08T00:44:25;97802.03;;;10.96;88.24
16030;BME280;34770;49.272;11.070;2023-08-08T00:46:51;97792.34;;;10.94;88.25
16030;BME280;34770;49.272;11.070;2023-08-08T00:49:16;97795.34;;;11.00;86.99
16030;BME280;34770;49.272;11.070;2023-08-08T00:51:41;97792.22;;;11.05;86.37
16030;BME280;34770;49.272;11.070;2023-08-08T00:54:07;97793.25;;;11.14;86.68
16030;BME280;34770;49.272;11.070;2023-08-08T00:56:34;97796.66;;;11.16;86.12
16030;BME280;34770;49.272;11.070;2023-08-08T00:59:00;97793.78;;;11.17;85.78
16030;BME280;34770;49.272;11.070;2023-08-08T01:01:26;97790.53;;;11.23;85.43
16030;BME280;34770;49.272;11.070;2023-08-08T01:03:53;97790.13;;;11.28;85.45
16030;BME280;34770;49.272;11.070;2023-08-08T01:09:03;97795.84;;;11.44;83.69
16030;BME280;34770;49.272;11.070;2023-08-08T01:11:31;97777.28;;;11.49;82.64
16030;BME280;34770;49.272;11.070;2023-08-08T01:13:59;97788.03;;;11.70;81.73
16030;BME280;34770;49.272;11.070;2023-08-08T01:16:25;97787.75;;;11.73;81.55
16030;BME280;34770;49.272;11.070;2023-08-08T01:18:52;97778.59;;;11.83;79.92
16030;BME280;34770;49.272;11.070;2023-08-08T01:21:17;97781.44;;;11.91;80.73
16030;BME280;34770;49.272;11.070;2023-08-08T01:23:52;97782.25;;;12.01;78.96
16030;BME280;34770;49.272;11.070;2023-08-08T01:26:20;97773.28;;;12.01;79.26
16030;BME280;34770;49.272;11.070;2023-08-08T01:28:45;97778.25;;;12.05;79.71
16030;BME280;34770;49.272;11.070;2023-08-08T01:31:11;97773.69;;;11.96;80.12
16030;BME280;34770;49.272;11.070;2023-08-08T01:33:37;97777.41;;;12.05;79.33
16030;BME280;34770;49.272;11.070;2023-08-08T01:36:24;97762.84;;;12.06;79.23
16030;BME280;34770;49.272;11.070;2023-08-08T01:38:53;97755.09;;;12.01;79.01
16030;BME280;34770;49.272;11.070;2023-08-08T01:41:25;97750.81;;;11.99;79.28
16030;BME280;34770;49.272;11.070;2023-08-08T01:43:51;97762.25;;;12.12;78.54
16030;BME280;34770;49.272;11.070;2023-08-08T01:46:17;97745.97;;;12.02;78.87
16030;BME280;34770;49.272;11.070;2023-08-08T01:48:46;97739.41;;;11.95;78.86
16030;BME280;34770;49.272;11.070;2023-08-08T01:51:12;97758.09;;;12.08;79.15
16030;BME280;34770;49.272;11.070;2023-08-08T01:53:37;97737.41;;;11.88;80.15
16030;BME280;34770;49.272;11.070;2023-08-08T01:56:02;97762.53;;;11.99;81.38
16030;BME280;34770;49.272;11.070;2023-08-08T01:58:28;97760.00;;;11.88;81.30
16030;BME280;34770;49.272;11.070;2023-08-08T02:00:53;97756.88;;;11.83;81.05
16030;BME280;34770;49.272;11.070;2023-08-08T02:03:19;97769.00;;;11.89;81.86
16030;BME280;34770;49.272;11.070;2023-08-08T02:05:44;97764.56;;;11.88;79.30
16030;BME280;34770;49.272;11.070;2023-08-08T02:08:09;97767.28;;;11.88;78.52
16030;BME280;34770;49.272;11.070;2023-08-08T02:10:35;97767.72;;;11.83;78.44
16030;BME280;34770;49.272;11.070;2023-08-08T02:13:00;97749.47;;;11.76;78.55
16030;BME280;34770;49.272;11.070;2023-08-08T02:15:25;97754.16;;;11.83;78.24
16030;BME280;34770;49.272;11.070;2023-08-08T02:17:52;97753.56;;;11.80;78.17
16030;BME280;34770;49.272;11.070;2023-08-08T02:20:18;97765.31;;;11.80;78.85
16030;BME280;34770;49.272;11.070;2023-08-08T02:22:43;97756.59;;;11.86;78.43
16030;BME280;34770;49.272;11.070;2023-08-08T02:25:08;97756.88;;;11.83;78.62
16030;BME280;34770;49.272;11.070;2023-08-08T02:27:34;97771.16;;;11.95;78.05
16030;BME280;34770;49.272;11.070;2023-08-08T02:29:59;97769.88;;;11.89;78.40
16030;BME280;34770;49.272;11.070;2023-08-08T02:32:24;97755.28;;;11.90;78.40
16030;BME280;34770;49.272;11.070;2023-08-08T02:34:50;97768.44;;;11.95;78.99
16030;BME280;34770;49.272;11.070;2023-08-08T02:37:15;97756.41;;;11.97;78.41
16030;BME280;34770;49.272;11.070;2023-08-08T02:39:43;97757.41;;;11.96;78.86
16030;BME280;34770;49.272;11.070;2023-08-08T02:42:09;97747.84;;;11.92;79.10
16030;BME280;34770;49.272;11.070;2023-08-08T02:44:34;97742.28;;;11.94;79.59
16030;BME280;34770;49.272;11.070;2023-08-08T02:46:59;97754.56;;;11.98;79.39
16030;BME280;34770;49.272;11.070;2023-08-08T02:49:25;97748.97;;;11.99;79.32
16030;BME280;34770;49.272;11.070;2023-08-08T02:51:50;97759.53;;;12.02;79.12
16030;BME280;34770;49.272;11.070;2023-08-08T02:54:15;97747.13;;;12.00;79.43
16030;BME280;34770;49.272;11.070;2023-08-08T02:56:41;97748.97;;;11.99;79.82
16030;BME280;34770;49.272;11.070;2023-08-08T02:59:06;97746.97;;;12.01;80.64
16030;BME280;34770;49.272;11.070;2023-08-08T03:01:31;97759.84;;;11.99;81.34
16030;BME280;34770;49.272;11.070;2023-08-08T03:03:57;97769.84;;;11.99;80.97
16030;BME280;34770;49.272;11.070;2023-08-08T03:06:22;97751.84;;;11.88;81.77
16030;BME280;34770;49.272;11.070;2023-08-08T03:08:47;97755.44;;;11.98;82.67
16030;BME280;34770;49.272;11.070;2023-08-08T03:11:13;97764.56;;;11.97;82.02
16030;BME280;34770;49.272;11.070;2023-08-08T03:13:38;97764.56;;;11.97;81.95
16030;BME280;34770;49.272;11.070;2023-08-08T03:16:03;97763.84;;;11.95;82.52
16030;BME280;34770;49.272;11.070;2023-08-08T03:18:29;97764.97;;;12.02;82.74
16030;BME280;34770;49.272;11.070;2023-08-08T03:20:54;97763.25;;;12.01;83.04
16030;BME280;34770;49.272;11.070;2023-08-08T03:23:20;97778.72;;;12.01;82.98
16030;BME280;34770;49.272;11.070;2023-08-08T03:25:48;97767.88;;;11.72;83.91
16030;BME280;34770;49.272;11.070;2023-08-08T03:28:14;97779.69;;;11.90;84.62
16030;BME280;34770;49.272;11.070;2023-08-08T03:30:39;97779.88;;;11.89;85.07
16030;BME280;34770;49.272;11.070;2023-08-08T03:33:05;97758.31;;;11.78;85.49
16030;BME280;34770;49.272;11.070;2023-08-08T03:35:30;97756.00;;;11.63;85.58
16030;BME280;34770;49.272;11.070;2023-08-08T03:37:55;97768.41;;;11.56;86.22
16030;BME280;34770;49.272;11.070;2023-08-08T03:40:21;97739.13;;;11.31;86.42
16030;BME280;34770;49.272;11.070;2023-08-08T03:42:46;97781.13;;;11.37;86.93
16030;BME280;34770;49.272;11.070;2023-08-08T03:45:12;97766.25;;;11.31;87.16
16030;BME280;34770;49.272;11.070;2023-08-08T03:47:37;97785.41;;;11.30;87.20
16030;BME280;34770;49.272;11.070;2023-08-08T03:50:03;97794.53;;;11.29;87.58
16030;BME280;34770;49.272;11.070;2023-08-08T03:52:29;97758.25;;;11.01;87.13
16030;BME280;34770;49.272;11.070;2023-08-08T03:54:55;97783.97;;;11.16;87.64
16030;BME280;34770;49.272;11.070;2023-08-08T03:57:20;97775.69;;;11.08;87.42
16030;BME280;34770;49.272;11.070;2023-08-08T03:59:46;97775.91;;;10.95;87.38
16030;BME280;34770;49.272;11.070;2023-08-08T04:02:11;97773.75;;;10.89;87.92
16030;BME280;34770;49.272;11.070;2023-08-08T04:04:36;97776.75;;;10.86;87.57
16030;BME280;34770;49.272;11.070;2023-08-08T04:07:03;97792.19;;;10.86;87.43
16030;BME280;34770;49.272;11.070;2023-08-08T04:09:29;97773.59;;;10.72;87.47
16030;BME280;34770;49.272;11.070;2023-08-08T04:11:54;97779.00;;;10.72;87.34
16030;BME280;34770;49.272;11.070;2023-08-08T04:14:20;97769.25;;;10.60;87.97
16030;BME280;34770;49.272;11.070;2023-08-08T04:16:45;97778.53;;;10.57;88.26
16030;BME280;34770;49.272;11.070;2023-08-08T04:19:10;97782.75;;;10.50;89.02
16030;BME280;34770;49.272;11.070;2023-08-08T04:21:35;97786.66;;;10.57;88.53
16030;BME280;34770;49.272;11.070;2023-08-08T04:24:01;97796.09;;;10.63;88.37
16030;BME280;34770;49.272;11.070;2023-08-08T04:26:26;97783.53;;;10.62;87.78
16030;BME280;34770;49.272;11.070;2023-08-08T04:28:52;97798.69;;;10.74;87.62
16030;BME280;34770;49.272;11.070;2023-08-08T04:31:17;97787.44;;;10.78;86.79
16030;BME280;34770;49.272;11.070;2023-08-08T04:33:42;97776.56;;;10.69;86.78
16030;BME280;34770;49.272;11.070;2023-08-08T04:36:08;97789.31;;;10.78;87.44
16030;BME280;34770;49.272;11.070;2023-08-08T04:38:33;97779.03;;;10.81;87.25
16030;BME280;34770;49.272;11.070;2023-08-08T04:40:59;97759.88;;;10.73;86.81
16030;BME280;34770;49.272;11.070;2023-08-08T04:43:25;97782.56;;;10.72;86.67
16030;BME280;34770;49.272;11.070;2023-08-08T04:45:53;97789.44;;;10.76;86.93
16030;BME280;34770;49.272;11.070;2023-08-08T04:48:18;97775.28;;;10.73;86.72
16030;BME280;34770;49.272;11.070;2023-08-08T04:50:46;97774.16;;;10.75;87.05
16030;BME280;34770;49.272;11.070;2023-08-08T04:53:11;97786.16;;;10.82;86.37
16030;BME280;34770;49.272;11.070;2023-08-08T04:55:37;97787.31;;;10.89;86.57
16030;BME280;34770;49.272;11.070;2023-08-08T04:58:02;97783.06;;;10.96;86.42
16030;BME280;34770;49.272;11.070;2023-08-08T05:00:28;97784.31;;;10.92;86.14
16030;BME280;34770;49.272;11.070;2023-08-08T05:02:53;97785.34;;;10.91;86.25
16030;BME280;34770;49.272;11.070;2023-08-08T05:05:18;97786.75;;;10.95;85.94
16030;BME280;34770;49.272;11.070;2023-08-08T05:07:44;97787.50;;;10.97;86.44
16030;BME280;34770;49.272;11.070;2023-08-08T05:10:09;97779.41;;;11.17;85.87
16030;BME280;34770;49.272;11.070;2023-08-08T05:12:34;97789.41;;;11.35;85.32
16030;BME280;34770;49.272;11.070;2023-08-08T05:15:00;97776.56;;;11.47;85.29
16030;BME280;34770;49.272;11.070;2023-08-08T05:17:25;97768.13;;;11.59;84.48
16030;BME280;34770;49.272;11.070;2023-08-08T05:19:51;97772.00;;;11.76;83.85
16030;BME280;34770;49.272;11.070;2023-08-08T05:22:16;97782.13;;;11.93;83.33
16030;BME280;34770;49.272;11.070;2023-08-08T05:24:41;97782.41;;;12.00;81.87
16030;BME280;34770;49.272;11.070;2023-08-08T05:27:07;97782.13;;;12.12;80.46
16030;BME280;34770;49.272;11.070;2023-08-08T05:29:32;97779.09;;;12.15;80.12
16030;BME280;34770;49.272;11.070;2023-08-08T05:31:57;97779.25;;;12.24;79.45
16030;BME280;34770;49.272;11.070;2023-08-08T05:34:24;97778.03;;;12.36;80.42
16030;BME280;34770;49.272;11.070;2023-08-08T05:36:49;97775.56;;;12.52;79.15
16030;BME280;34770;49.272;11.070;2023-08-08T05:39:15;97774.66;;;12.61;79.09
16030;BME280;34770;49.272;11.070;2023-08-08T05:41:40;97778.75;;;12.74;78.43
16030;BME280;34770;49.272;11.070;2023-08-08T05:44:05;97781.69;;;12.91;78.48
16030;BME280;34770;49.272;11.070;2023-08-08T05:46:31;97777.03;;;13.01;77.60
16030;BME280;34770;49.272;11.070;2023-08-08T05:48:56;97781.00;;;13.06;78.10
16030;BME280;34770;49.272;11.070;2023-08-08T05:51:22;97770.81;;;13.18;77.45
16030;BME280;34770;49.272;11.070;2023-08-08T05:53:47;97778.06;;;13.27;77.35
16030;BME280;34770;49.272;11.070;2023-08-08T05:56:13;97776.97;;;13.38;76.73
16030;BME280;34770;49.272;11.070;2023-08-08T05:58:38;97770.00;;;13.53;76.42
16030;BME280;34770;49.272;11.070;2023-08-08T06:01:04;97771.53;;;13.73;75.77
16030;BME280;34770;49.272;11.070;2023-08-08T06:03:35;97768.41;;;13.85;75.36
16030;BME280;34770;49.272;11.070;2023-08-08T06:06:01;97765.22;;;13.90;75.25
16030;BME280;34770;49.272;11.070;2023-08-08T06:08:26;97772.19;;;14.10;74.42
16030;BME280;34770;49.272;11.070;2023-08-08T06:10:51;97768.19;;;14.22;74.17
16030;BME280;34770;49.272;11.070;2023-08-08T06:13:17;97769.09;;;14.31;72.43
16030;BME280;34770;49.272;11.070;2023-08-08T06:15:42;97765.78;;;14.37;72.61
16030;BME280;34770;49.272;11.070;2023-08-08T06:18:08;97772.28;;;14.44;71.87
16030;BME280;34770;49.272;11.070;2023-08-08T06:20:33;97766.69;;;14.45;71.02
16030;BME280;34770;49.272;11.070;2023-08-08T06:22:59;97780.81;;;14.49;71.09
16030;BME280;34770;49.272;11.070;2023-08-08T06:25:24;97754.88;;;14.19;71.77
16030;BME280;34770;49.272;11.070;2023-08-08T06:27:50;97713.31;;;13.91;71.90
16030;BME280;34770;49.272;11.070;2023-08-08T06:30:16;97690.38;;;13.76;71.65
16030;BME280;34770;49.272;11.070;2023-08-08T06:32:42;97699.69;;;13.91;71.61
16030;BME280;34770;49.272;11.070;2023-08-08T06:35:10;97765.69;;;14.55;71.58
16030;BME280;34770;49.272;11.070;2023-08-08T06:37:36;97710.97;;;14.48;70.42
16030;BME280;34770;49.272;11.070;2023-08-08T06:40:05;97724.53;;;14.74;70.09
16030;BME280;34770;49.272;11.070;2023-08-08T06:42:37;97693.16;;;14.70;69.03
16030;BME280;34770;49.272;11.070;2023-08-08T06:45:03;97672.66;;;14.58;68.56
16030;BME280;34770;49.272;11.070;2023-08-08T06:47:29;97776.13;;;15.35;68.31
16030;BME280;34770;49.272;11.070;2023-08-08T06:49:55;97697.91;;;15.09;68.70
16030;BME280;34770;49.272;11.070;2023-08-08T06:52:21;97676.88;;;14.94;67.11
16030;BME280;34770;49.272;11.070;2023-08-08T06:54:47;97690.06;;;15.06;67.75
16030;BME280;34770;49.272;11.070;2023-08-08T06:57:13;97686.66;;;15.13;67.63
16030;BME280;34770;49.272;11.070;2023-08-08T06:59:39;97670.09;;;15.14;67.08
16030;BME280;34770;49.272;11.070;2023-08-08T07:02:04;97691.47;;;15.27;66.57
16030;BME280;34770;49.272;11.070;2023-08-08T07:04:30;97680.03;;;15.31;67.28
16030;BME280;34770;49.272;11.070;2023-08-08T07:06:56;97684.81;;;15.29;66.00
16030;BME280;34770;49.272;11.070;2023-08-08T07:09:24;97666.03;;;15.26;67.08
16030;BME280;34770;49.272;11.070;2023-08-08T07:11:50;97679.16;;;15.31;65.84
16030;BME280;34770;49.272;11.070;2023-08-08T07:14:21;97685.19;;;15.58;65.90
16030;BME280;34770;49.272;11.070;2023-08-08T07:16:47;97643.00;;;15.45;66.08
16030;BME280;34770;49.272;11.070;2023-08-08T07:19:13;97705.84;;;15.93;65.87
16030;BME280;34770;49.272;11.070;2023-08-08T07:21:47;97681.44;;;16.00;64.97
16030;BME280;34770;49.272;11.070;2023-08-08T07:24:13;97645.94;;;15.68;65.43
16030;BME280;34770;49.272;11.070;2023-08-08T07:26:39;97680.72;;;15.98;64.65
16030;BME280;34770;49.272;11.070;2023-08-08T07:29:04;97669.31;;;15.78;65.84
16030;BME280;34770;49.272;11.070;2023-08-08T07:31:31;97692.53;;;15.90;65.26
16030;BME280;34770;49.272;11.070;2023-08-08T07:33:57;97702.38;;;16.32;64.93
16030;BME280;34770;49.272;11.070;2023-08-08T07:36:23;97647.94;;;16.14;64.36
16030;BME280;34770;49.272;11.070;2023-08-08T07:38:48;97660.13;;;16.58;63.66
16030;BME280;34770;49.272;11.070;2023-08-08T07:41:14;97682.59;;;16.76;64.00
16030;BME280;34770;49.272;11.070;2023-08-08T07:43:39;97655.16;;;16.46;62.59
16030;BME280;34770;49.272;11.070;2023-08-08T07:46:05;97643.59;;;16.36;63.15
16030;BME280;34770;49.272;11.070;2023-08-08T07:48:30;97645.22;;;16.53;63.19
16030;BME280;34770;49.272;11.070;2023-08-08T07:50:56;97654.59;;;16.66;62.83
16030;BME280;34770;49.272;11.070;2023-08-08T07:53:22;97631.81;;;16.74;62.41
16030;BME280;34770;49.272;11.070;2023-08-08T07:55:47;97658.81;;;17.08;62.34
16030;BME280;34770;49.272;11.070;2023-08-08T07:58:13;97718.31;;;17.75;60.76
16030;BME280;34770;49.272;11.070;2023-08-08T08:00:38;97703.25;;;17.94;59.23
16030;BME280;34770;49.272;11.070;2023-08-08T08:03:05;97689.75;;;17.70;59.08
16030;BME280;34770;49.272;11.070;2023-08-08T08:05:35;97706.47;;;17.98;60.38
16030;BME280;34770;49.272;11.070;2023-08-08T08:08:16;97709.84;;;18.08;59.42
16030;BME280;34770;49.272;11.070;2023-08-08T08:10:44;97728.31;;;17.68;61.36
16030;BME280;34770;49.272;11.070;2023-08-08T08:13:14;97715.94;;;17.42;60.34
16030;BME280;34770;49.272;11.070;2023-08-08T08:15:39;97723.06;;;17.28;60.24
16030;BME280;34770;49.272;11.070;2023-08-08T08:18:05;97708.25;;;17.14;59.90
16030;BME280;34770;49.272;11.070;2023-08-08T08:20:32;97719.69;;;17.71;58.89
16030;BME280;34770;49.272;11.070;2023-08-08T08:22:57;97703.09;;;17.73;57.75
16030;BME280;34770;49.272;11.070;2023-08-08T08:25:23;97709.56;;;17.49;59.18
16030;BME280;34770;49.272;11.070;2023-08-08T08:27:48;97698.28;;;17.21;60.07
16030;BME280;34770;49.272;11.070;2023-08-08T08:30:17;97690.78;;;17.15;61.10
16030;BME280;34770;49.272;11.070;2023-08-08T08:32:45;97723.16;;;17.12;61.74
16030;BME280;34770;49.272;11.070;2023-08-08T08:35:10;97713.16;;;17.50;60.13
16030;BME280;34770;49.272;11.070;2023-08-08T08:37:38;97679.38;;;17.80;58.19
16030;BME280;34770;49.272;11.070;2023-08-08T08:40:03;97720.91;;;17.91;56.99
16030;BME280;34770;49.272;11.070;2023-08-08T08:42:34;97708.03;;;18.15;57.44
16030;BME280;34770;49.272;11.070;2023-08-08T08:45:02;97709.06;;;18.51;56.76
16030;BME280;34770;49.272;11.070;2023-08-08T08:47:30;97699.75;;;18.37;55.39
16030;BME280;34770;49.272;11.070;2023-08-08T08:49:57;97699.78;;;18.81;55.21
16030;BME280;34770;49.272;11.070;2023-08-08T08:52:22;97710.69;;;18.75;53.69
16030;BME280;34770;49.272;11.070;2023-08-08T08:54:50;97691.94;;;18.78;54.02
16030;BME280;34770;49.272;11.070;2023-08-08T08:57:16;97694.69;;;18.78;54.08
16030;BME280;34770;49.272;11.070;2023-08-08T08:59:42;97710.22;;;18.71;54.32
16030;BME280;34770;49.272;11.070;2023-08-08T09:02:08;97721.69;;;18.75;54.58
16030;BME280;34770;49.272;11.070;2023-08-08T09:04:36;97717.59;;;18.85;52.38
16030;BME280;34770;49.272;11.070;2023-08-08T09:07:02;97701.78;;;18.87;52.50
16030;BME280;34770;49.272;11.070;2023-08-08T09:09:32;97695.94;;;19.41;51.85
16030;BME280;34770;49.272;11.070;2023-08-08T09:11:57;97693.75;;;19.36;51.25
16030;BME280;34770;49.272;11.070;2023-08-08T09:14:25;97710.47;;;19.05;49.82
16030;BME280;34770;49.272;11.070;2023-08-08T09:16:51;97702.94;;;18.49;51.43
16030;BME280;34770;49.272;11.070;2023-08-08T09:19:22;97707.56;;;18.63;51.30
16030;BME280;34770;49.272;11.070;2023-08-08T09:21:48;97682.72;;;19.00;51.46
16030;BME280;34770;49.272;11.070;2023-08-08T09:24:14;97699.50;;;19.56;49.34
16030;BME280;34770;49.272;11.070;2023-08-08T09:26:40;97688.81;;;19.46;48.03
16030;BME280;34770;49.272;11.070;2023-08-08T09:29:07;97701.66;;;19.60;48.72
16030;BME280;34770;49.272;11.070;2023-08-08T09:31:34;97698.78;;;19.33;50.28
16030;BME280;34770;49.272;11.070;2023-08-08T09:34:01;97693.53;;;19.02;50.75
16030;BME280;34770;49.272;11.070;2023-08-08T09:36:28;97690.53;;;18.82;50.09
16030;BME280;34770;49.272;11.070;2023-08-08T09:38:54;97706.69;;;18.92;50.83
16030;BME280;34770;49.272;11.070;2023-08-08T09:41:20;97664.09;;;18.81;50.33
16030;BME280;34770;49.272;11.070;2023-08-08T09:43:50;97691.06;;;18.92;50.63
16030;BME280;34770;49.272;11.070;2023-08-08T09:46:18;97705.63;;;19.07;51.17
16030;BME280;34770;49.272;11.070;2023-08-08T09:48:44;97686.53;;;18.99;50.86
16030;BME280;34770;49.272;11.070;2023-08-08T09:51:10;97687.66;;;18.76;50.35
16030;BME280;34770;49.272;11.070;2023-08-08T09:53:36;97690.53;;;18.82;51.73
16030;BME280;34770;49.272;11.070;2023-08-08T09:56:05;97674.91;;;18.68;48.50
16030;BME280;34770;49.272;11.070;2023-08-08T09:58:32;97669.31;;;18.62;51.41
16030;BME280;34770;49.272;11.070;2023-08-08T10:00:57;97685.66;;;18.99;50.53
16030;BME280;34770;49.272;11.070;2023-08-08T10:03:24;97675.47;;;18.78;48.64
16030;BME280;34770;49.272;11.070;2023-08-08T10:05:49;97663.44;;;18.50;48.71
16030;BME280;34770;49.272;11.070;2023-08-08T10:08:15;97670.66;;;18.51;48.12
16030;BME280;34770;49.272;11.070;2023-08-08T10:10:44;97645.06;;;18.36;49.71
16030;BME280;34770;49.272;11.070;2023-08-08T10:13:10;97662.03;;;18.54;48.13
16030;BME280;34770;49.272;11.070;2023-08-08T10:15:40;97648.34;;;19.04;49.20
16030;BME280;34770;49.272;11.070;2023-08-08T10:18:06;97649.69;;;19.30;48.22
16030;BME280;34770;49.272;11.070;2023-08-08T10:20:32;97668.34;;;18.98;49.13
16030;BME280;34770;49.272;11.070;2023-08-08T10:22:59;97662.06;;;19.04;48.18
16030;BME280;34770;49.272;11.070;2023-08-08T10:25:26;97665.56;;;19.13;48.00
16030;BME280;34770;49.272;11.070;2023-08-08T10:30:52;97650.53;;;19.66;47.90
16030;BME280;34770;49.272;11.070;2023-08-08T10:36:00;97650.06;;;19.62;47.28
16030;BME280;34770;49.272;11.070;2023-08-08T10:38:37;97648.31;;;19.55;47.63
16030;BME280;34770;49.272;11.070;2023-08-08T10:41:03;97642.28;;;19.66;45.58
16030;BME280;34770;49.272;11.070;2023-08-08T10:43:29;97651.47;;;20.01;47.28
16030;BME280;34770;49.272;11.070;2023-08-08T10:46:00;97665.16;;;19.94;46.39
16030;BME280;34770;49.272;11.070;2023-08-08T10:48:32;97664.78;;;19.97;46.70
16030;BME280;34770;49.272;11.070;2023-08-08T10:51:05;97657.34;;;19.70;47.92
16030;BME280;34770;49.272;11.070;2023-08-08T10:53:30;97655.66;;;20.18;47.15
16030;BME280;34770;49.272;11.070;2023-08-08T10:58:35;97650.53;;;19.87;46.33
16030;BME280;34770;49.272;11.070;2023-08-08T11:01:01;97645.13;;;20.00;46.55
16030;BME280;34770;49.272;11.070;2023-08-08T11:03:28;97653.78;;;19.76;45.58
16030;BME280;34770;49.272;11.070;2023-08-08T11:05:57;97647.00;;;19.72;46.93
16030;BME280;34770;49.272;11.070;2023-08-08T11:08:25;97618.00;;;19.48;47.19
16030;BME280;34770;49.272;11.070;2023-08-08T11:10:53;97650.81;;;19.35;47.13
16030;BME280;34770;49.272;11.070;2023-08-08T11:13:19;97634.94;;;19.52;46.39
16030;BME280;34770;49.272;11.070;2023-08-08T11:15:46;97656.69;;;20.45;45.32
16030;BME280;34770;49.272;11.070;2023-08-08T11:18:11;97663.13;;;20.52;42.70
16030;BME280;34770;49.272;11.070;2023-08-08T11:20:37;97655.22;;;20.76;43.42
16030;BME280;34770;49.272;11.070;2023-08-08T11:23:03;97633.31;;;20.62;42.18
16030;BME280;34770;49.272;11.070;2023-08-08T11:25:31;97644.66;;;20.52;42.09
16030;BME280;34770;49.272;11.070;2023-08-08T11:27:57;97660.94;;;20.81;43.36
16030;BME280;34770;49.272;11.070;2023-08-08T11:30:24;97638.06;;;20.47;43.14
16030;BME280;34770;49.272;11.070;2023-08-08T11:32:53;97641.38;;;20.29;44.24
16030;BME280;34770;49.272;11.070;2023-08-08T11:35:22;97654.31;;;20.69;43.77
16030;BME280;34770;49.272;11.070;2023-08-08T11:37:48;97619.91;;;20.52;42.49
16030;BME280;34770;49.272;11.070;2023-08-08T11:40:15;97632.31;;;20.76;42.25
16030;BME280;34770;49.272;11.070;2023-08-08T11:42:41;97631.53;;;21.36;42.64
16030;BME280;34770;49.272;11.070;2023-08-08T11:45:09;97644.69;;;21.54;42.01
16030;BME280;34770;49.272;11.070;2023-08-08T11:47:35;97630.25;;;21.38;41.12
16030;BME280;34770;49.272;11.070;2023-08-08T11:50:04;97640.28;;;21.66;41.81
16030;BME280;34770;49.272;11.070;2023-08-08T11:52:30;97629.38;;;21.31;42.54
16030;BME280;34770;49.272;11.070;2023-08-08T11:54:58;97635.50;;;21.20;40.86
16030;BME280;34770;49.272;11.070;2023-08-08T11:57:25;97628.16;;;21.00;43.59
16030;BME280;34770;49.272;11.070;2023-08-08T11:59:55;97598.84;;;21.26;41.43
16030;BME280;34770;49.272;11.070;2023-08-08T12:02:23;97626.41;;;21.26;41.00
16030;BME280;34770;49.272;11.070;2023-08-08T12:04:48;97605.78;;;21.09;39.21
16030;BME280;34770;49.272;11.070;2023-08-08T12:07:14;97634.50;;;21.41;41.24
16030;BME280;34770;49.272;11.070;2023-08-08T12:09:39;97630.00;;;21.33;39.81
16030;BME280;34770;49.272;11.070;2023-08-08T12:12:05;97602.06;;;21.43;38.99
16030;BME280;34770;49.272;11.070;2023-08-08T12:14:37;97614.97;;;21.29;39.67
16030;BME280;34770;49.272;11.070;2023-08-08T12:17:04;97622.59;;;21.27;40.83
16030;BME280;34770;49.272;11.070;2023-08-08T12:19:29;97635.63;;;21.06;39.31
16030;BME280;34770;49.272;11.070;2023-08-08T12:21:54;97630.03;;;21.40;41.72
16030;BME280;34770;49.272;11.070;2023-08-08T12:24:20;97593.53;;;21.18;40.80
16030;BME280;34770;49.272;11.070;2023-08-08T12:26:45;97609.06;;;21.52;40.43
16030;BME280;34770;49.272;11.070;2023-08-08T12:29:11;97602.50;;;21.73;40.23
16030;BME280;34770;49.272;11.070;2023-08-08T12:31:37;97605.47;;;21.58;40.29
16030;BME280;34770;49.272;11.070;2023-08-08T12:34:03;97578.50;;;21.34;40.91
16030;BME280;34770;49.272;11.070;2023-08-08T12:36:29;97602.56;;;20.99;40.33
16030;BME280;34770;49.272;11.070;2023-08-08T12:38:54;97578.72;;;21.46;40.27
16030;BME280;34770;49.272;11.070;2023-08-08T12:41:19;97614.19;;;22.40;39.90
16030;BME280;34770;49.272;11.070;2023-08-08T12:43:45;97611.59;;;21.41;38.10
16030;BME280;34770;49.272;11.070;2023-08-08T12:46:13;97586.34;;;21.24;38.48
16030;BME280;34770;49.272;11.070;2023-08-08T12:48:39;97603.63;;;21.91;38.73
16030;BME280;34770;49.272;11.070;2023-08-08T12:51:04;97574.06;;;21.79;36.69
16030;BME280;34770;49.272;11.070;2023-08-08T12:53:30;97587.22;;;21.70;37.63
16030;BME280;34770;49.272;11.070;2023-08-08T12:55:55;97611.91;;;22.11;36.33